sensor_id;sensor_type;location;lat;lon;timestamp;temperature;humidity
19200;DHT22;9732;52.498;5.408;2023-04-12T00:01:04;10.60;99.90
19200;DHT22;9732;52.498;5.408;2023-04-12T00:03:34;10.60;99.90
19200;DHT22;9732;52.498;5.408;2023-04-12T00:06:01;10.60;99.90
19200;DHT22;9732;52.498;5.408;2023-04-12T00:08:32;10.60;99.90
19200;DHT22;9732;52.498;5.408;2023-04-12T00:11:00;10.50;99.90
19200;DHT22;9732;52.498;5.408;2023-04-12T00:13:27;10.50;99.90
19200;DHT22;9732;52.498;5.408;2023-04-12T00:15:55;10.40;99.90
19200;DHT22;9732;52.498;5.408;2023-04-12T00:18:23;10.30;99.90
19200;DHT22;9732;52.498;5.408;2023-04-12T00:20:52;10.20;99.90
19200;DHT22;9732;52.498;5.408;2023-04-12T00:23:20;10.30;99.90
19200;DHT22;9732;52.498;5.408;2023-04-12T00:25:47;10.20;99.90
19200;DHT22;9732;52.498;5.408;2023-04-12T00:28:17;10.20;99.90
19200;DHT22;9732;52.498;5.408;2023-04-12T00:30:44;10.20;99.90
19200;DHT22;9732;52.498;5.408;2023-04-12T00:33:11;10.20;99.90
19200;DHT22;9732;52.498;5.408;2023-04-12T00:35:40;10.10;99.90
19200;DHT22;9732;52.498;5.408;2023-04-12T00:38:07;10.10;99.90
19200;DHT22;9732;52.498;5.408;2023-04-12T00:40:35;10.10;99.90
19200;DHT22;9732;52.498;5.408;2023-04-12T00:43:02;10.00;99.90
19200;DHT22;9732;52.498;5.408;2023-04-12T00:45:29;10.00;99.90
19200;DHT22;9732;52.498;5.408;2023-04-12T00:47:56;9.90;99.90
19200;DHT22;9732;52.498;5.408;2023-04-12T00:50:23;9.80;99.90
19200;DHT22;9732;52.498;5.408;2023-04-12T00:52:53;9.80;99.90
19200;DHT22;9732;52.498;5.408;2023-04-12T00:55:21;9.80;99.90
19200;DHT22;9732;52.498;5.408;2023-04-12T00:57:49;9.80;99.90
19200;DHT22;9732;52.498;5.408;2023-04-12T01:00:16;9.80;99.90
19200;DHT22;9732;52.498;5.408;2023-04-12T01:02:45;9.70;99.90
19200;DHT22;9732;52.498;5.408;2023-04-12T01:05:17;9.70;99.90
19200;DHT22;9732;52.498;5.408;2023-04-12T01:07:54;9.70;99.90
19200;DHT22;9732;52.498;5.408;2023-04-12T01:10:37;9.70;99.90
19200;DHT22;9732;52.498;5.408;2023-04-12T01:13:20;9.60;99.90
19200;DHT22;9732;52.498;5.408;2023-04-12T01:15:55;9.60;99.90
19200;DHT22;9732;52.498;5.408;2023-04-12T01:18:24;9.60;99.90
19200;DHT22;9732;52.498;5.408;2023-04-12T01:21:00;9.60;99.90
19200;DHT22;9732;52.498;5.408;2023-04-12T01:23:57;9.60;99.90
19200;DHT22;9732;52.498;5.408;2023-04-12T01:26:32;9.60;99.90
19200;DHT22;9732;52.498;5.408;2023-04-12T01:29:06;9.50;99.90
19200;DHT22;9732;52.498;5.408;2023-04-12T01:31:35;9.50;99.90
19200;DHT22;9732;52.498;5.408;2023-04-12T01:34:05;9.40;99.90
19200;DHT22;9732;52.498;5.408;2023-04-12T01:36:33;9.50;99.90
19200;DHT22;9732;52.498;5.408;2023-04-12T01:39:03;9.50;99.90
19200;DHT22;9732;52.498;5.408;2023-04-12T01:41:31;9.50;99.90
19200;DHT22;9732;52.498;5.408;2023-04-12T01:43:58;9.40;99.90
19200;DHT22;9732;52.498;5.408;2023-04-12T01:46:27;9.40;99.90
19200;DHT22;9732;52.498;5.408;2023-04-12T01:48:55;9.40;99.90
19200;DHT22;9732;52.498;5.408;2023-04-12T01:51:32;9.40;99.90
19200;DHT22;9732;52.498;5.408;2023-04-12T01:54:04;9.40;99.90
19200;DHT22;9732;52.498;5.408;2023-04-12T01:56:36;9.40;99.90
19200;DHT22;9732;52.498;5.408;2023-04-12T01:59:06;9.40;99.90
19200;DHT22;9732;52.498;5.408;2023-04-12T02:01:36;9.40;99.90
19200;DHT22;9732;52.498;5.408;2023-04-12T02:04:04;9.40;99.90
19200;DHT22;9732;52.498;5.408;2023-04-12T02:06:32;9.40;99.90
19200;DHT22;9732;52.498;5.408;2023-04-12T02:09:03;9.40;99.90
19200;DHT22;9732;52.498;5.408;2023-04-12T02:11:30;9.40;99.90
19200;DHT22;9732;52.498;5.408;2023-04-12T02:13:57;9.40;99.90
19200;DHT22;9732;52.498;5.408;2023-04-12T02:16:25;9.40;99.90
19200;DHT22;9732;52.498;5.408;2023-04-12T02:18:54;9.40;99.90
19200;DHT22;9732;52.498;5.408;2023-04-12T02:21:24;9.40;99.90
19200;DHT22;9732;52.498;5.408;2023-04-12T02:23:52;9.40;99.90
19200;DHT22;9732;52.498;5.408;2023-04-12T02:26:19;9.40;99.90
19200;DHT22;9732;52.498;5.408;2023-04-12T02:28:49;9.40;99.90
19200;DHT22;9732;52.498;5.408;2023-04-12T02:31:17;9.40;99.90
19200;DHT22;9732;52.498;5.408;2023-04-12T02:33:44;9.40;99.90
19200;DHT22;9732;52.498;5.408;2023-04-12T02:36:12;9.40;99.90
19200;DHT22;9732;52.498;5.408;2023-04-12T02:38:40;9.30;99.90
19200;DHT22;9732;52.498;5.408;2023-04-12T02:41:07;9.40;99.90
19200;DHT22;9732;52.498;5.408;2023-04-12T02:43:33;9.50;99.90
19200;DHT22;9732;52.498;5.408;2023-04-12T02:46:00;9.40;99.90
19200;DHT22;9732;52.498;5.408;2023-04-12T02:48:27;9.40;99.90
19200;DHT22;9732;52.498;5.408;2023-04-12T02:50:54;9.40;99.90
19200;DHT22;9732;52.498;5.408;2023-04-12T02:53:22;9.30;99.90
19200;DHT22;9732;52.498;5.408;2023-04-12T02:55:49;9.30;99.90
19200;DHT22;9732;52.498;5.408;2023-04-12T02:58:16;9.30;99.90
19200;DHT22;9732;52.498;5.408;2023-04-12T03:00:44;9.30;99.90
19200;DHT22;9732;52.498;5.408;2023-04-12T03:03:12;9.30;99.90
19200;DHT22;9732;52.498;5.408;2023-04-12T03:05:39;9.30;99.90
19200;DHT22;9732;52.498;5.408;2023-04-12T03:08:07;9.30;99.90
19200;DHT22;9732;52.498;5.408;2023-04-12T03:10:35;9.30;99.90
19200;DHT22;9732;52.498;5.408;2023-04-12T03:13:03;9.30;99.90
19200;DHT22;9732;52.498;5.408;2023-04-12T03:15:30;9.30;99.90
19200;DHT22;9732;52.498;5.408;2023-04-12T03:17:57;9.30;99.90
19200;DHT22;9732;52.498;5.408;2023-04-12T03:20:24;9.30;99.90
19200;DHT22;9732;52.498;5.408;2023-04-12T03:22:53;9.20;99.90
19200;DHT22;9732;52.498;5.408;2023-04-12T03:25:20;9.20;99.90
19200;DHT22;9732;52.498;5.408;2023-04-12T03:27:48;9.20;99.90
19200;DHT22;9732;52.498;5.408;2023-04-12T03:30:15;9.30;99.90
19200;DHT22;9732;52.498;5.408;2023-04-12T03:32:43;9.20;99.90
19200;DHT22;9732;52.498;5.408;2023-04-12T03:35:10;9.20;99.90
19200;DHT22;9732;52.498;5.408;2023-04-12T03:37:41;9.30;99.90
19200;DHT22;9732;52.498;5.408;2023-04-12T03:40:08;9.30;99.90
19200;DHT22;9732;52.498;5.408;2023-04-12T03:42:35;9.30;99.90
19200;DHT22;9732;52.498;5.408;2023-04-12T03:45:04;9.20;99.90
19200;DHT22;9732;52.498;5.408;2023-04-12T03:47:31;9.30;99.90
19200;DHT22;9732;52.498;5.408;2023-04-12T03:50:02;9.20;99.90
19200;DHT22;9732;52.498;5.408;2023-04-12T03:52:31;9.10;99.90
19200;DHT22;9732;52.498;5.408;2023-04-12T03:54:58;9.10;99.90
19200;DHT22;9732;52.498;5.408;2023-04-12T03:57:25;9.10;99.90
19200;DHT22;9732;52.498;5.408;2023-04-12T03:59:52;9.10;99.90
19200;DHT22;9732;52.498;5.408;2023-04-12T04:02:20;9.10;99.90
19200;DHT22;9732;52.498;5.408;2023-04-12T04:04:47;9.10;99.90
19200;DHT22;9732;52.498;5.408;2023-04-12T04:07:14;9.10;99.90
19200;DHT22;9732;52.498;5.408;2023-04-12T04:09:41;9.10;99.90
19200;DHT22;9732;52.498;5.408;2023-04-12T04:12:08;9.10;99.90
19200;DHT22;9732;52.498;5.408;2023-04-12T04:14:36;9.10;99.90
19200;DHT22;9732;52.498;5.408;2023-04-12T04:17:03;9.10;99.90
19200;DHT22;9732;52.498;5.408;2023-04-12T04:19:32;9.10;99.90
19200;DHT22;9732;52.498;5.408;2023-04-12T04:21:59;9.10;99.90
19200;DHT22;9732;52.498;5.408;2023-04-12T04:24:27;9.00;99.90
19200;DHT22;9732;52.498;5.408;2023-04-12T04:26:55;9.10;99.90
19200;DHT22;9732;52.498;5.408;2023-04-12T04:29:23;9.00;99.90
19200;DHT22;9732;52.498;5.408;2023-04-12T04:31:50;9.00;99.90
19200;DHT22;9732;52.498;5.408;2023-04-12T04:34:19;9.00;99.90
19200;DHT22;9732;52.498;5.408;2023-04-12T04:36:50;9.00;99.90
19200;DHT22;9732;52.498;5.408;2023-04-12T04:39:18;9.00;99.90
19200;DHT22;9732;52.498;5.408;2023-04-12T04:41:45;9.00;99.90
19200;DHT22;9732;52.498;5.408;2023-04-12T04:44:19;9.10;99.90
19200;DHT22;9732;52.498;5.408;2023-04-12T04:46:47;9.10;99.90
19200;DHT22;9732;52.498;5.408;2023-04-12T04:49:14;9.10;99.90
19200;DHT22;9732;52.498;5.408;2023-04-12T04:51:42;9.10;99.90
19200;DHT22;9732;52.498;5.408;2023-04-12T04:54:10;9.10;99.90
19200;DHT22;9732;52.498;5.408;2023-04-12T04:56:38;9.10;99.90
19200;DHT22;9732;52.498;5.408;2023-04-12T04:59:07;9.10;99.90
19200;DHT22;9732;52.498;5.408;2023-04-12T05:01:33;9.10;99.90
19200;DHT22;9732;52.498;5.408;2023-04-12T05:04:01;9.10;99.90
19200;DHT22;9732;52.498;5.408;2023-04-12T05:06:28;9.10;99.90
19200;DHT22;9732;52.498;5.408;2023-04-12T05:08:55;9.10;99.90
19200;DHT22;9732;52.498;5.408;2023-04-12T05:11:23;9.10;99.90
19200;DHT22;9732;52.498;5.408;2023-04-12T05:13:50;9.10;99.90
19200;DHT22;9732;52.498;5.408;2023-04-12T05:16:17;9.10;99.90
19200;DHT22;9732;52.498;5.408;2023-04-12T05:18:44;9.10;99.90
19200;DHT22;9732;52.498;5.408;2023-04-12T05:21:11;9.10;99.90
19200;DHT22;9732;52.498;5.408;2023-04-12T05:23:42;9.10;99.90
19200;DHT22;9732;52.498;5.408;2023-04-12T05:26:09;9.10;99.90
19200;DHT22;9732;52.498;5.408;2023-04-12T05:28:37;9.10;99.90
19200;DHT22;9732;52.498;5.408;2023-04-12T05:31:04;9.10;99.90
19200;DHT22;9732;52.498;5.408;2023-04-12T05:33:31;9.20;99.90
19200;DHT22;9732;52.498;5.408;2023-04-12T05:35:59;9.30;99.90
19200;DHT22;9732;52.498;5.408;2023-04-12T05:38:26;9.20;99.90
19200;DHT22;9732;52.498;5.408;2023-04-12T05:40:52;9.30;99.90
19200;DHT22;9732;52.498;5.408;2023-04-12T05:43:19;9.30;99.90
19200;DHT22;9732;52.498;5.408;2023-04-12T05:45:49;9.30;99.90
19200;DHT22;9732;52.498;5.408;2023-04-12T05:48:16;9.30;99.90
19200;DHT22;9732;52.498;5.408;2023-04-12T05:50:49;9.40;99.90
19200;DHT22;9732;52.498;5.408;2023-04-12T05:53:16;9.40;99.90
19200;DHT22;9732;52.498;5.408;2023-04-12T05:55:43;9.40;99.90
19200;DHT22;9732;52.498;5.408;2023-04-12T05:58:10;9.40;99.90
19200;DHT22;9732;52.498;5.408;2023-04-12T06:00:38;9.40;99.90
19200;DHT22;9732;52.498;5.408;2023-04-12T06:03:07;9.40;99.90
19200;DHT22;9732;52.498;5.408;2023-04-12T06:05:35;9.40;99.90
19200;DHT22;9732;52.498;5.408;2023-04-12T06:08:01;9.50;99.90
19200;DHT22;9732;52.498;5.408;2023-04-12T06:10:30;9.50;99.90
19200;DHT22;9732;52.498;5.408;2023-04-12T06:12:56;9.50;99.90
19200;DHT22;9732;52.498;5.408;2023-04-12T06:15:23;9.50;99.90
19200;DHT22;9732;52.498;5.408;2023-04-12T06:17:50;9.60;99.90
19200;DHT22;9732;52.498;5.408;2023-04-12T06:20:19;9.60;99.90
19200;DHT22;9732;52.498;5.408;2023-04-12T06:22:46;9.60;99.90
19200;DHT22;9732;52.498;5.408;2023-04-12T06:25:13;9.50;99.90
19200;DHT22;9732;52.498;5.408;2023-04-12T06:27:41;9.60;99.90
19200;DHT22;9732;52.498;5.408;2023-04-12T06:30:10;9.60;99.90
19200;DHT22;9732;52.498;5.408;2023-04-12T06:32:36;9.70;99.90
19200;DHT22;9732;52.498;5.408;2023-04-12T06:35:04;9.70;99.90
19200;DHT22;9732;52.498;5.408;2023-04-12T06:37:34;9.70;99.90
19200;DHT22;9732;52.498;5.408;2023-04-12T06:40:01;9.80;99.90
19200;DHT22;9732;52.498;5.408;2023-04-12T06:42:29;9.80;99.90
19200;DHT22;9732;52.498;5.408;2023-04-12T06:44:56;9.80;99.90
19200;DHT22;9732;52.498;5.408;2023-04-12T06:47:23;9.80;99.90
19200;DHT22;9732;52.498;5.408;2023-04-12T06:49:50;9.70;99.90
19200;DHT22;9732;52.498;5.408;2023-04-12T06:52:23;9.70;99.90
19200;DHT22;9732;52.498;5.408;2023-04-12T06:54:53;9.80;99.90
19200;DHT22;9732;52.498;5.408;2023-04-12T06:57:20;9.80;99.90
19200;DHT22;9732;52.498;5.408;2023-04-12T06:59:47;9.80;99.90
19200;DHT22;9732;52.498;5.408;2023-04-12T07:02:16;9.90;99.90
19200;DHT22;9732;52.498;5.408;2023-04-12T07:04:43;9.90;99.90
19200;DHT22;9732;52.498;5.408;2023-04-12T07:07:10;9.90;99.90
19200;DHT22;9732;52.498;5.408;2023-04-12T07:09:38;10.00;99.90
19200;DHT22;9732;52.498;5.408;2023-04-12T07:12:06;10.00;99.90
19200;DHT22;9732;52.498;5.408;2023-04-12T07:14:33;10.00;99.90
19200;DHT22;9732;52.498;5.408;2023-04-12T07:17:01;10.10;99.90
19200;DHT22;9732;52.498;5.408;2023-04-12T07:19:28;10.10;99.90
19200;DHT22;9732;52.498;5.408;2023-04-12T07:21:55;10.10;99.90
19200;DHT22;9732;52.498;5.408;2023-04-12T07:24:22;10.10;99.90
19200;DHT22;9732;52.498;5.408;2023-04-12T07:26:52;10.10;99.90
19200;DHT22;9732;52.498;5.408;2023-04-12T07:29:20;10.20;99.90
19200;DHT22;9732;52.498;5.408;2023-04-12T07:31:48;10.10;99.90
19200;DHT22;9732;52.498;5.408;2023-04-12T07:34:15;10.20;99.90
19200;DHT22;9732;52.498;5.408;2023-04-12T07:36:42;10.20;99.90
19200;DHT22;9732;52.498;5.408;2023-04-12T07:39:09;10.20;99.90
19200;DHT22;9732;52.498;5.408;2023-04-12T07:41:38;10.20;99.90
19200;DHT22;9732;52.498;5.408;2023-04-12T07:44:06;10.20;99.90
19200;DHT22;9732;52.498;5.408;2023-04-12T07:46:34;10.20;99.90
19200;DHT22;9732;52.498;5.408;2023-04-12T07:49:01;10.20;99.90
19200;DHT22;9732;52.498;5.408;2023-04-12T07:51:29;10.20;99.90
19200;DHT22;9732;52.498;5.408;2023-04-12T07:53:56;10.30;99.90
19200;DHT22;9732;52.498;5.408;2023-04-12T07:56:23;10.30;99.90
19200;DHT22;9732;52.498;5.408;2023-04-12T07:58:50;10.40;99.90
19200;DHT22;9732;52.498;5.408;2023-04-12T08:01:17;10.50;99.90
19200;DHT22;9732;52.498;5.408;2023-04-12T08:03:46;10.60;99.90
19200;DHT22;9732;52.498;5.408;2023-04-12T08:06:13;10.60;99.90
19200;DHT22;9732;52.498;5.408;2023-04-12T08:08:41;10.50;99.90
19200;DHT22;9732;52.498;5.408;2023-04-12T08:11:12;10.60;99.90
19200;DHT22;9732;52.498;5.408;2023-04-12T08:13:38;10.70;99.90
19200;DHT22;9732;52.498;5.408;2023-04-12T08:16:06;10.70;99.90
19200;DHT22;9732;52.498;5.408;2023-04-12T08:18:33;10.60;99.90
19200;DHT22;9732;52.498;5.408;2023-04-12T08:21:02;10.60;99.90
19200;DHT22;9732;52.498;5.408;2023-04-12T08:23:29;10.70;99.90
19200;DHT22;9732;52.498;5.408;2023-04-12T08:25:56;10.80;99.90
19200;DHT22;9732;52.498;5.408;2023-04-12T08:28:28;10.90;99.90
19200;DHT22;9732;52.498;5.408;2023-04-12T08:30:55;11.00;99.90
19200;DHT22;9732;52.498;5.408;2023-04-12T08:33:23;11.10;99.90
19200;DHT22;9732;52.498;5.408;2023-04-12T08:35:50;11.30;99.90
19200;DHT22;9732;52.498;5.408;2023-04-12T08:38:19;11.40;99.90
19200;DHT22;9732;52.498;5.408;2023-04-12T08:40:46;11.70;99.90
19200;DHT22;9732;52.498;5.408;2023-04-12T08:43:14;12.00;99.90
19200;DHT22;9732;52.498;5.408;2023-04-12T08:45:44;12.00;99.90
19200;DHT22;9732;52.498;5.408;2023-04-12T08:48:11;12.20;99.90
19200;DHT22;9732;52.498;5.408;2023-04-12T08:50:42;12.20;99.90
19200;DHT22;9732;52.498;5.408;2023-04-12T08:53:09;12.30;99.90
19200;DHT22;9732;52.498;5.408;2023-04-12T08:55:38;12.30;99.90
19200;DHT22;9732;52.498;5.408;2023-04-12T08:58:05;12.40;99.90
19200;DHT22;9732;52.498;5.408;2023-04-12T09:00:36;12.40;99.90
19200;DHT22;9732;52.498;5.408;2023-04-12T09:03:03;12.40;99.90
19200;DHT22;9732;52.498;5.408;2023-04-12T09:05:30;12.50;99.90
19200;DHT22;9732;52.498;5.408;2023-04-12T09:07:57;12.50;99.90
19200;DHT22;9732;52.498;5.408;2023-04-12T09:10:31;12.60;99.90
19200;DHT22;9732;52.498;5.408;2023-04-12T09:13:00;12.60;99.90
19200;DHT22;9732;52.498;5.408;2023-04-12T09:15:29;12.80;99.90
19200;DHT22;9732;52.498;5.408;2023-04-12T09:18:07;12.90;99.90
19200;DHT22;9732;52.498;5.408;2023-04-12T09:20:34;13.10;99.90
19200;DHT22;9732;52.498;5.408;2023-04-12T09:23:17;13.50;99.90
19200;DHT22;9732;52.498;5.408;2023-04-12T09:25:45;13.60;99.90
19200;DHT22;9732;52.498;5.408;2023-04-12T09:28:23;13.60;99.90
19200;DHT22;9732;52.498;5.408;2023-04-12T09:30:51;13.70;99.90
19200;DHT22;9732;52.498;5.408;2023-04-12T09:33:19;13.70;99.90
19200;DHT22;9732;52.498;5.408;2023-04-12T09:35:46;13.50;99.90
19200;DHT22;9732;52.498;5.408;2023-04-12T09:38:14;13.30;99.90
19200;DHT22;9732;52.498;5.408;2023-04-12T09:40:40;13.30;99.90
19200;DHT22;9732;52.498;5.408;2023-04-12T09:43:07;13.30;99.90
19200;DHT22;9732;52.498;5.408;2023-04-12T09:45:37;13.30;99.90
19200;DHT22;9732;52.498;5.408;2023-04-12T09:48:05;13.40;99.90
19200;DHT22;9732;52.498;5.408;2023-04-12T09:50:33;13.40;99.90
19200;DHT22;9732;52.498;5.408;2023-04-12T09:53:02;13.50;99.90
19200;DHT22;9732;52.498;5.408;2023-04-12T09:55:31;13.50;99.90
19200;DHT22;9732;52.498;5.408;2023-04-12T09:58:01;13.50;99.90
19200;DHT22;9732;52.498;5.408;2023-04-12T10:00:30;13.50;99.90
19200;DHT22;9732;52.498;5.408;2023-04-12T10:03:01;13.60;99.90
19200;DHT22;9732;52.498;5.408;2023-04-12T10:05:28;13.50;99.90
19200;DHT22;9732;52.498;5.408;2023-04-12T10:07:55;13.40;99.90
19200;DHT22;9732;52.498;5.408;2023-04-12T10:10:23;13.60;99.90
19200;DHT22;9732;52.498;5.408;2023-04-12T10:12:50;13.70;99.90
19200;DHT22;9732;52.498;5.408;2023-04-12T10:15:17;13.80;99.90
19200;DHT22;9732;52.498;5.408;2023-04-12T10:17:48;13.70;99.90
19200;DHT22;9732;52.498;5.408;2023-04-12T10:20:18;13.40;99.90
19200;DHT22;9732;52.498;5.408;2023-04-12T10:22:47;13.30;99.90
19200;DHT22;9732;52.498;5.408;2023-04-12T10:25:16;13.40;99.90
19200;DHT22;9732;52.498;5.408;2023-04-12T10:27:44;13.50;99.90
19200;DHT22;9732;52.498;5.408;2023-04-12T10:30:22;13.50;99.90
19200;DHT22;9732;52.498;5.408;2023-04-12T10:35:50;13.10;99.90
19200;DHT22;9732;52.498;5.408;2023-04-12T10:38:17;12.90;99.90
19200;DHT22;9732;52.498;5.408;2023-04-12T10:41:07;12.90;99.90
19200;DHT22;9732;52.498;5.408;2023-04-12T10:43:34;13.00;99.90
19200;DHT22;9732;52.498;5.408;2023-04-12T10:46:01;13.00;99.90
19200;DHT22;9732;52.498;5.408;2023-04-12T10:48:32;13.00;99.90
19200;DHT22;9732;52.498;5.408;2023-04-12T10:51:17;13.00;99.90
19200;DHT22;9732;52.498;5.408;2023-04-12T10:53:48;13.10;99.90
19200;DHT22;9732;52.498;5.408;2023-04-12T10:56:43;13.30;99.90
19200;DHT22;9732;52.498;5.408;2023-04-12T10:59:11;13.50;99.90
19200;DHT22;9732;52.498;5.408;2023-04-12T11:01:41;13.70;99.90
19200;DHT22;9732;52.498;5.408;2023-04-12T11:04:10;13.80;99.90
19200;DHT22;9732;52.498;5.408;2023-04-12T11:06:53;14.10;99.90
19200;DHT22;9732;52.498;5.408;2023-04-12T11:09:23;14.30;99.90
19200;DHT22;9732;52.498;5.408;2023-04-12T11:11:56;14.90;99.90
19200;DHT22;9732;52.498;5.408;2023-04-12T11:14:27;15.80;99.90
19200;DHT22;9732;52.498;5.408;2023-04-12T11:17:19;16.60;99.90
19200;DHT22;9732;52.498;5.408;2023-04-12T11:19:50;17.40;99.90
19200;DHT22;9732;52.498;5.408;2023-04-12T11:22:20;17.40;99.90
19200;DHT22;9732;52.498;5.408;2023-04-12T11:24:48;17.60;99.90
19200;DHT22;9732;52.498;5.408;2023-04-12T11:27:17;17.80;99.90
19200;DHT22;9732;52.498;5.408;2023-04-12T11:29:46;18.00;99.90
19200;DHT22;9732;52.498;5.408;2023-04-12T11:32:13;17.90;99.90
19200;DHT22;9732;52.498;5.408;2023-04-12T11:34:42;17.90;99.90
19200;DHT22;9732;52.498;5.408;2023-04-12T11:37:09;18.10;99.90
19200;DHT22;9732;52.498;5.408;2023-04-12T11:39:39;17.90;99.90
19200;DHT22;9732;52.498;5.408;2023-04-12T11:42:07;17.90;99.90
19200;DHT22;9732;52.498;5.408;2023-04-12T11:44:40;18.20;99.90
19200;DHT22;9732;52.498;5.408;2023-04-12T11:47:13;18.30;99.90
19200;DHT22;9732;52.498;5.408;2023-04-12T11:49:44;18.10;99.90
19200;DHT22;9732;52.498;5.408;2023-04-12T11:52:11;17.60;99.90
19200;DHT22;9732;52.498;5.408;2023-04-12T11:54:43;17.30;99.90
19200;DHT22;9732;52.498;5.408;2023-04-12T11:57:11;17.30;99.90
19200;DHT22;9732;52.498;5.408;2023-04-12T11:59:38;17.10;99.90
19200;DHT22;9732;52.498;5.408;2023-04-12T12:02:06;16.60;99.90
19200;DHT22;9732;52.498;5.408;2023-04-12T12:04:34;16.40;99.90
19200;DHT22;9732;52.498;5.408;2023-04-12T12:07:01;16.10;99.90
19200;DHT22;9732;52.498;5.408;2023-04-12T12:09:28;16.00;99.90
19200;DHT22;9732;52.498;5.408;2023-04-12T12:11:57;15.70;99.90
19200;DHT22;9732;52.498;5.408;2023-04-12T12:14:25;15.50;99.90
19200;DHT22;9732;52.498;5.408;2023-04-12T12:16:54;15.60;99.90
19200;DHT22;9732;52.498;5.408;2023-04-12T12:19:30;15.90;99.90
19200;DHT22;9732;52.498;5.408;2023-04-12T12:22:10;16.70;99.90
19200;DHT22;9732;52.498;5.408;2023-04-12T12:24:38;17.20;99.90
19200;DHT22;9732;52.498;5.408;2023-04-12T12:27:06;17.10;99.90
19200;DHT22;9732;52.498;5.408;2023-04-12T12:29:35;16.70;99.90
19200;DHT22;9732;52.498;5.408;2023-04-12T12:32:09;16.30;99.90
19200;DHT22;9732;52.498;5.408;2023-04-12T12:34:48;16.00;99.90
19200;DHT22;9732;52.498;5.408;2023-04-12T12:37:19;15.90;99.90
19200;DHT22;9732;52.498;5.408;2023-04-12T12:39:59;15.80;99.90
19200;DHT22;9732;52.498;5.408;2023-04-12T12:42:28;15.40;99.90
19200;DHT22;9732;52.498;5.408;2023-04-12T12:44:55;15.10;99.90
19200;DHT22;9732;52.498;5.408;2023-04-12T12:47:22;14.80;99.90
19200;DHT22;9732;52.498;5.408;2023-04-12T12:49:48;14.40;99.90
19200;DHT22;9732;52.498;5.408;2023-04-12T12:52:15;14.20;99.90
19200;DHT22;9732;52.498;5.408;2023-04-12T12:54:42;13.90;99.90
19200;DHT22;9732;52.498;5.408;2023-04-12T12:57:09;13.80;99.90
19200;DHT22;9732;52.498;5.408;2023-04-12T12:59:37;13.90;99.90
19200;DHT22;9732;52.498;5.408;2023-04-12T13:02:04;14.10;99.90
19200;DHT22;9732;52.498;5.408;2023-04-12T13:04:31;14.60;99.90
19200;DHT22;9732;52.498;5.408;2023-04-12T13:06:58;15.00;99.90
19200;DHT22;9732;52.498;5.408;2023-04-12T13:09:25;15.00;99.90
19200;DHT22;9732;52.498;5.408;2023-04-12T13:11:51;14.70;99.90
19200;DHT22;9732;52.498;5.408;2023-04-12T13:14:18;14.50;99.90
19200;DHT22;9732;52.498;5.408;2023-04-12T13:16:46;14.10;99.90
19200;DHT22;9732;52.498;5.408;2023-04-12T13:19:13;13.80;99.90
19200;DHT22;9732;52.498;5.408;2023-04-12T13:21:40;13.70;99.90
19200;DHT22;9732;52.498;5.408;2023-04-12T13:24:07;13.50;99.90
19200;DHT22;9732;52.498;5.408;2023-04-12T13:26:34;13.30;99.90
19200;DHT22;9732;52.498;5.408;2023-04-12T13:29:01;13.20;99.90
19200;DHT22;9732;52.498;5.408;2023-04-12T13:31:28;13.10;99.90
19200;DHT22;9732;52.498;5.408;2023-04-12T13:33:56;13.20;99.90
19200;DHT22;9732;52.498;5.408;2023-04-12T13:36:23;13.20;99.90
19200;DHT22;9732;52.498;5.408;2023-04-12T13:38:51;13.00;99.90
19200;DHT22;9732;52.498;5.408;2023-04-12T13:41:17;12.90;99.90
19200;DHT22;9732;52.498;5.408;2023-04-12T13:43:44;12.80;99.90
19200;DHT22;9732;52.498;5.408;2023-04-12T13:46:11;12.80;99.90
19200;DHT22;9732;52.498;5.408;2023-04-12T13:48:37;12.80;99.90
19200;DHT22;9732;52.498;5.408;2023-04-12T13:51:06;12.80;99.90
19200;DHT22;9732;52.498;5.408;2023-04-12T13:53:33;12.80;99.90
19200;DHT22;9732;52.498;5.408;2023-04-12T13:56:00;12.80;99.90
19200;DHT22;9732;52.498;5.408;2023-04-12T13:58:27;13.60;99.90
19200;DHT22;9732;52.498;5.408;2023-04-12T14:00:54;14.60;99.90
19200;DHT22;9732;52.498;5.408;2023-04-12T14:03:23;15.50;99.90
19200;DHT22;9732;52.498;5.408;2023-04-12T14:05:50;15.70;99.90
19200;DHT22;9732;52.498;5.408;2023-04-12T14:08:18;15.70;99.90
19200;DHT22;9732;52.498;5.408;2023-04-12T14:10:45;15.90;99.90
19200;DHT22;9732;52.498;5.408;2023-04-12T14:13:11;16.00;99.90
19200;DHT22;9732;52.498;5.408;2023-04-12T14:15:38;16.00;99.90
19200;DHT22;9732;52.498;5.408;2023-04-12T14:18:05;16.10;99.90
19200;DHT22;9732;52.498;5.408;2023-04-12T14:20:31;16.30;99.90
19200;DHT22;9732;52.498;5.408;2023-04-12T14:22:58;15.90;99.90
19200;DHT22;9732;52.498;5.408;2023-04-12T14:25:26;15.80;99.90
19200;DHT22;9732;52.498;5.408;2023-04-12T14:27:53;15.70;99.90
19200;DHT22;9732;52.498;5.408;2023-04-12T14:30:20;15.50;99.90
19200;DHT22;9732;52.498;5.408;2023-04-12T14:32:47;15.30;99.90
19200;DHT22;9732;52.498;5.408;2023-04-12T14:35:14;15.10;99.90
19200;DHT22;9732;52.498;5.408;2023-04-12T14:37:42;15.00;99.90
19200;DHT22;9732;52.498;5.408;2023-04-12T14:40:09;15.00;99.90
19200;DHT22;9732;52.498;5.408;2023-04-12T14:42:37;14.80;99.90
19200;DHT22;9732;52.498;5.408;2023-04-12T14:45:04;14.60;99.90
19200;DHT22;9732;52.498;5.408;2023-04-12T14:47:34;14.30;99.90
19200;DHT22;9732;52.498;5.408;2023-04-12T14:50:01;13.70;99.90
19200;DHT22;9732;52.498;5.408;2023-04-12T14:52:29;13.30;99.90
19200;DHT22;9732;52.498;5.408;2023-04-12T14:54:56;13.20;99.90
19200;DHT22;9732;52.498;5.408;2023-04-12T14:57:23;13.00;99.90
19200;DHT22;9732;52.498;5.408;2023-04-12T14:59:51;13.20;99.90
19200;DHT22;9732;52.498;5.408;2023-04-12T15:02:19;13.50;99.90
19200;DHT22;9732;52.498;5.408;2023-04-12T15:04:47;13.90;99.90
19200;DHT22;9732;52.498;5.408;2023-04-12T15:07:14;14.00;99.90
19200;DHT22;9732;52.498;5.408;2023-04-12T15:09:41;14.10;99.90
19200;DHT22;9732;52.498;5.408;2023-04-12T15:12:09;14.00;99.90
19200;DHT22;9732;52.498;5.408;2023-04-12T15:14:36;14.10;99.90
19200;DHT22;9732;52.498;5.408;2023-04-12T15:17:04;14.00;99.90
19200;DHT22;9732;52.498;5.408;2023-04-12T15:19:30;13.80;99.90
19200;DHT22;9732;52.498;5.408;2023-04-12T15:21:57;13.70;99.90
19200;DHT22;9732;52.498;5.408;2023-04-12T15:24:25;13.30;99.90
19200;DHT22;9732;52.498;5.408;2023-04-12T15:26:52;12.90;99.90
19200;DHT22;9732;52.498;5.408;2023-04-12T15:29:19;12.70;99.90
19200;DHT22;9732;52.498;5.408;2023-04-12T15:31:49;12.70;99.90
19200;DHT22;9732;52.498;5.408;2023-04-12T15:34:17;12.60;99.90
19200;DHT22;9732;52.498;5.408;2023-04-12T15:36:44;12.40;99.90
19200;DHT22;9732;52.498;5.408;2023-04-12T15:39:11;12.40;99.90
19200;DHT22;9732;52.498;5.408;2023-04-12T15:41:39;12.60;99.90
19200;DHT22;9732;52.498;5.408;2023-04-12T15:44:09;12.70;99.90
19200;DHT22;9732;52.498;5.408;2023-04-12T15:46:38;12.80;99.90
19200;DHT22;9732;52.498;5.408;2023-04-12T15:49:05;12.70;99.90
19200;DHT22;9732;52.498;5.408;2023-04-12T15:51:34;12.70;99.90
19200;DHT22;9732;52.498;5.408;2023-04-12T15:54:01;12.90;99.90
19200;DHT22;9732;52.498;5.408;2023-04-12T15:56:28;12.90;99.90
19200;DHT22;9732;52.498;5.408;2023-04-12T15:58:56;12.70;99.90
19200;DHT22;9732;52.498;5.408;2023-04-12T16:01:25;12.80;99.90
19200;DHT22;9732;52.498;5.408;2023-04-12T16:03:52;12.90;99.90